sensor_id;sensor_type;location;lat;lon;timestamp;temperature;humidity
50586;DHT22;36542;51.700;8.846;2023-07-20T00:00:49;14.50;99.90
50586;DHT22;36542;51.700;8.846;2023-07-20T00:03:19;14.50;99.90
50586;DHT22;36542;51.700;8.846;2023-07-20T00:05:50;14.50;99.90
50586;DHT22;36542;51.700;8.846;2023-07-20T00:08:17;14.60;99.90
50586;DHT22;36542;51.700;8.846;2023-07-20T00:10:42;14.60;99.90
50586;DHT22;36542;51.700;8.846;2023-07-20T00:13:09;14.60;99.90
50586;DHT22;36542;51.700;8.846;2023-07-20T00:15:35;14.50;99.90
50586;DHT22;36542;51.700;8.846;2023-07-20T00:18:01;14.50;99.90
50586;DHT22;36542;51.700;8.846;2023-07-20T00:20:26;14.20;99.90
50586;DHT22;36542;51.700;8.846;2023-07-20T00:22:52;14.00;99.90
50586;DHT22;36542;51.700;8.846;2023-07-20T00:25:18;13.90;99.90
50586;DHT22;36542;51.700;8.846;2023-07-20T00:27:43;13.90;99.90
50586;DHT22;36542;51.700;8.846;2023-07-20T00:30:09;13.90;99.90
50586;DHT22;36542;51.700;8.846;2023-07-20T00:32:35;14.00;99.90
50586;DHT22;36542;51.700;8.846;2023-07-20T00:35:00;14.00;99.90
50586;DHT22;36542;51.700;8.846;2023-07-20T00:37:26;14.00;99.90
50586;DHT22;36542;51.700;8.846;2023-07-20T00:39:52;14.10;99.90
50586;DHT22;36542;51.700;8.846;2023-07-20T00:42:18;14.10;99.90
50586;DHT22;36542;51.700;8.846;2023-07-20T00:44:43;14.10;99.90
50586;DHT22;36542;51.700;8.846;2023-07-20T00:47:09;14.10;99.90
50586;DHT22;36542;51.700;8.846;2023-07-20T00:49:35;14.20;99.90
50586;DHT22;36542;51.700;8.846;2023-07-20T00:52:01;14.20;99.90
50586;DHT22;36542;51.700;8.846;2023-07-20T00:54:28;14.20;99.90
50586;DHT22;36542;51.700;8.846;2023-07-20T00:56:54;14.20;99.90
50586;DHT22;36542;51.700;8.846;2023-07-20T00:59:20;14.20;99.90
50586;DHT22;36542;51.700;8.846;2023-07-20T01:01:46;14.20;99.90
50586;DHT22;36542;51.700;8.846;2023-07-20T01:04:12;14.20;99.90
50586;DHT22;36542;51.700;8.846;2023-07-20T01:11:59;14.30;99.90
50586;DHT22;36542;51.700;8.846;2023-07-20T01:14:29;14.40;99.90
50586;DHT22;36542;51.700;8.846;2023-07-20T01:16:54;14.40;99.90
50586;DHT22;36542;51.700;8.846;2023-07-20T01:19:20;14.40;99.90
50586;DHT22;36542;51.700;8.846;2023-07-20T01:21:57;14.40;99.90
50586;DHT22;36542;51.700;8.846;2023-07-20T01:24:45;14.40;99.90
50586;DHT22;36542;51.700;8.846;2023-07-20T01:33:05;14.50;99.90
50586;DHT22;36542;51.700;8.846;2023-07-20T01:35:32;14.50;99.90
50586;DHT22;36542;51.700;8.846;2023-07-20T01:37:59;14.50;99.90
50586;DHT22;36542;51.700;8.846;2023-07-20T01:40:26;14.50;99.90
50586;DHT22;36542;51.700;8.846;2023-07-20T01:42:52;14.50;99.90
50586;DHT22;36542;51.700;8.846;2023-07-20T01:45:19;14.50;99.90
50586;DHT22;36542;51.700;8.846;2023-07-20T01:47:44;14.50;99.90
50586;DHT22;36542;51.700;8.846;2023-07-20T01:50:10;14.50;99.90
50586;DHT22;36542;51.700;8.846;2023-07-20T01:52:35;14.50;99.90
50586;DHT22;36542;51.700;8.846;2023-07-20T01:55:01;14.50;99.90
50586;DHT22;36542;51.700;8.846;2023-07-20T01:57:26;14.50;99.90
50586;DHT22;36542;51.700;8.846;2023-07-20T01:59:52;14.50;99.90
50586;DHT22;36542;51.700;8.846;2023-07-20T02:02:18;14.50;99.90
50586;DHT22;36542;51.700;8.846;2023-07-20T02:04:43;14.50;99.90
50586;DHT22;36542;51.700;8.846;2023-07-20T02:07:09;14.40;99.90
50586;DHT22;36542;51.700;8.846;2023-07-20T02:09:34;14.40;99.90
50586;DHT22;36542;51.700;8.846;2023-07-20T02:12:00;14.30;99.90
50586;DHT22;36542;51.700;8.846;2023-07-20T02:14:25;14.30;99.90
50586;DHT22;36542;51.700;8.846;2023-07-20T02:16:51;14.30;99.90
50586;DHT22;36542;51.700;8.846;2023-07-20T02:19:17;14.30;99.90
50586;DHT22;36542;51.700;8.846;2023-07-20T02:21:43;14.30;99.90
50586;DHT22;36542;51.700;8.846;2023-07-20T02:24:09;14.30;99.90
50586;DHT22;36542;51.700;8.846;2023-07-20T02:26:34;14.30;99.90
50586;DHT22;36542;51.700;8.846;2023-07-20T02:29:00;14.30;99.90
50586;DHT22;36542;51.700;8.846;2023-07-20T02:31:25;14.30;99.90
50586;DHT22;36542;51.700;8.846;2023-07-20T02:33:51;14.30;99.90
50586;DHT22;36542;51.700;8.846;2023-07-20T02:36:16;14.30;99.90
50586;DHT22;36542;51.700;8.846;2023-07-20T02:38:42;14.30;99.90
50586;DHT22;36542;51.700;8.846;2023-07-20T02:41:08;14.30;99.90
50586;DHT22;36542;51.700;8.846;2023-07-20T02:43:33;14.30;99.90
50586;DHT22;36542;51.700;8.846;2023-07-20T02:45:59;14.30;99.90
50586;DHT22;36542;51.700;8.846;2023-07-20T02:48:24;14.30;99.90
50586;DHT22;36542;51.700;8.846;2023-07-20T02:50:50;14.30;99.90
50586;DHT22;36542;51.700;8.846;2023-07-20T02:53:15;14.40;99.90
50586;DHT22;36542;51.700;8.846;2023-07-20T02:55:41;14.40;99.90
50586;DHT22;36542;51.700;8.846;2023-07-20T02:58:06;14.40;99.90
50586;DHT22;36542;51.700;8.846;2023-07-20T03:00:33;14.40;99.90
50586;DHT22;36542;51.700;8.846;2023-07-20T03:02:58;14.30;99.90
50586;DHT22;36542;51.700;8.846;2023-07-20T03:05:24;14.40;99.90
50586;DHT22;36542;51.700;8.846;2023-07-20T03:07:50;14.30;99.90
50586;DHT22;36542;51.700;8.846;2023-07-20T03:10:16;14.30;99.90
50586;DHT22;36542;51.700;8.846;2023-07-20T03:12:42;14.30;99.90
50586;DHT22;36542;51.700;8.846;2023-07-20T03:15:08;14.30;99.90
50586;DHT22;36542;51.700;8.846;2023-07-20T03:17:33;14.30;99.90
50586;DHT22;36542;51.700;8.846;2023-07-20T03:19:59;14.30;99.90
50586;DHT22;36542;51.700;8.846;2023-07-20T03:22:26;14.30;99.90
50586;DHT22;36542;51.700;8.846;2023-07-20T03:24:51;14.30;99.90
50586;DHT22;36542;51.700;8.846;2023-07-20T03:27:18;14.30;99.90
50586;DHT22;36542;51.700;8.846;2023-07-20T03:29:43;14.30;99.90
50586;DHT22;36542;51.700;8.846;2023-07-20T03:32:09;14.30;99.90
50586;DHT22;36542;51.700;8.846;2023-07-20T03:34:35;14.30;99.90
50586;DHT22;36542;51.700;8.846;2023-07-20T03:37:01;14.30;99.90
50586;DHT22;36542;51.700;8.846;2023-07-20T03:39:26;14.30;99.90
50586;DHT22;36542;51.700;8.846;2023-07-20T03:41:52;14.30;99.90
50586;DHT22;36542;51.700;8.846;2023-07-20T03:44:18;14.30;99.90
50586;DHT22;36542;51.700;8.846;2023-07-20T03:46:44;14.30;99.90
50586;DHT22;36542;51.700;8.846;2023-07-20T03:49:09;14.30;99.90
50586;DHT22;36542;51.700;8.846;2023-07-20T03:51:35;14.30;99.90
50586;DHT22;36542;51.700;8.846;2023-07-20T03:54:01;14.30;99.90
50586;DHT22;36542;51.700;8.846;2023-07-20T03:56:27;14.40;99.90
50586;DHT22;36542;51.700;8.846;2023-07-20T03:58:53;14.40;99.90
50586;DHT22;36542;51.700;8.846;2023-07-20T04:01:18;14.40;99.90
50586;DHT22;36542;51.700;8.846;2023-07-20T04:03:44;14.40;99.90
50586;DHT22;36542;51.700;8.846;2023-07-20T04:06:10;14.40;99.90
50586;DHT22;36542;51.700;8.846;2023-07-20T04:08:36;14.40;99.90
50586;DHT22;36542;51.700;8.846;2023-07-20T04:11:02;14.40;99.90
50586;DHT22;36542;51.700;8.846;2023-07-20T04:13:28;14.50;99.90
50586;DHT22;36542;51.700;8.846;2023-07-20T04:15:54;14.50;99.90
50586;DHT22;36542;51.700;8.846;2023-07-20T04:18:20;14.50;99.90
50586;DHT22;36542;51.700;8.846;2023-07-20T04:20:46;14.50;99.90
50586;DHT22;36542;51.700;8.846;2023-07-20T04:23:11;14.50;99.90
50586;DHT22;36542;51.700;8.846;2023-07-20T04:25:39;14.50;99.90
50586;DHT22;36542;51.700;8.846;2023-07-20T04:28:06;14.50;99.90
50586;DHT22;36542;51.700;8.846;2023-07-20T04:30:39;14.40;99.90
50586;DHT22;36542;51.700;8.846;2023-07-20T04:33:06;14.30;99.90
50586;DHT22;36542;51.700;8.846;2023-07-20T04:35:52;14.20;99.90
50586;DHT22;36542;51.700;8.846;2023-07-20T04:38:18;14.10;99.90
50586;DHT22;36542;51.700;8.846;2023-07-20T04:40:45;13.90;99.90
50586;DHT22;36542;51.700;8.846;2023-07-20T04:43:11;13.70;99.90
50586;DHT22;36542;51.700;8.846;2023-07-20T04:45:36;13.60;99.90
50586;DHT22;36542;51.700;8.846;2023-07-20T04:48:02;13.70;99.90
50586;DHT22;36542;51.700;8.846;2023-07-20T04:50:28;13.70;99.90
50586;DHT22;36542;51.700;8.846;2023-07-20T04:52:53;13.70;99.90
50586;DHT22;36542;51.700;8.846;2023-07-20T04:55:19;13.80;99.90
50586;DHT22;36542;51.700;8.846;2023-07-20T04:57:44;13.90;99.90
50586;DHT22;36542;51.700;8.846;2023-07-20T05:00:10;13.90;99.90
50586;DHT22;36542;51.700;8.846;2023-07-20T05:02:38;14.00;99.90
50586;DHT22;36542;51.700;8.846;2023-07-20T05:05:04;14.10;99.90
50586;DHT22;36542;51.700;8.846;2023-07-20T05:07:31;14.20;99.90
50586;DHT22;36542;51.700;8.846;2023-07-20T05:09:57;14.30;99.90
50586;DHT22;36542;51.700;8.846;2023-07-20T05:12:23;14.30;99.90
50586;DHT22;36542;51.700;8.846;2023-07-20T05:14:48;14.30;99.90
50586;DHT22;36542;51.700;8.846;2023-07-20T05:17:14;14.30;99.90
50586;DHT22;36542;51.700;8.846;2023-07-20T05:19:39;14.20;99.90
50586;DHT22;36542;51.700;8.846;2023-07-20T05:22:05;14.20;99.90
50586;DHT22;36542;51.700;8.846;2023-07-20T05:24:31;14.20;99.90
50586;DHT22;36542;51.700;8.846;2023-07-20T05:26:57;14.20;99.90
50586;DHT22;36542;51.700;8.846;2023-07-20T05:29:23;14.20;99.90
50586;DHT22;36542;51.700;8.846;2023-07-20T05:31:49;14.20;99.90
50586;DHT22;36542;51.700;8.846;2023-07-20T05:34:14;14.20;99.90
50586;DHT22;36542;51.700;8.846;2023-07-20T05:36:40;14.20;99.90
50586;DHT22;36542;51.700;8.846;2023-07-20T05:39:06;14.20;99.90
50586;DHT22;36542;51.700;8.846;2023-07-20T05:41:31;14.20;99.90
50586;DHT22;36542;51.700;8.846;2023-07-20T05:43:57;14.30;99.90
50586;DHT22;36542;51.700;8.846;2023-07-20T05:46:22;14.40;99.90
50586;DHT22;36542;51.700;8.846;2023-07-20T05:48:49;14.40;99.90
50586;DHT22;36542;51.700;8.846;2023-07-20T05:51:15;14.40;99.90
50586;DHT22;36542;51.700;8.846;2023-07-20T05:53:41;14.40;99.90
50586;DHT22;36542;51.700;8.846;2023-07-20T05:56:06;14.40;99.90
50586;DHT22;36542;51.700;8.846;2023-07-20T05:58:36;14.10;99.90
50586;DHT22;36542;51.700;8.846;2023-07-20T06:01:01;13.80;99.90
50586;DHT22;36542;51.700;8.846;2023-07-20T06:03:27;13.60;99.90
50586;DHT22;36542;51.700;8.846;2023-07-20T06:05:59;13.60;99.90
50586;DHT22;36542;51.700;8.846;2023-07-20T06:08:24;13.50;99.90
50586;DHT22;36542;51.700;8.846;2023-07-20T06:10:51;13.50;99.90
50586;DHT22;36542;51.700;8.846;2023-07-20T06:13:19;13.50;99.90
50586;DHT22;36542;51.700;8.846;2023-07-20T06:15:44;13.50;99.90
50586;DHT22;36542;51.700;8.846;2023-07-20T06:18:10;13.60;99.90
50586;DHT22;36542;51.700;8.846;2023-07-20T06:20:35;13.70;99.90
50586;DHT22;36542;51.700;8.846;2023-07-20T06:23:01;13.80;99.90
50586;DHT22;36542;51.700;8.846;2023-07-20T06:25:26;13.90;99.90
50586;DHT22;36542;51.700;8.846;2023-07-20T06:27:52;14.00;99.90
50586;DHT22;36542;51.700;8.846;2023-07-20T06:30:18;14.10;99.90
50586;DHT22;36542;51.700;8.846;2023-07-20T06:32:43;14.10;99.90
50586;DHT22;36542;51.700;8.846;2023-07-20T06:35:09;14.20;99.90
50586;DHT22;36542;51.700;8.846;2023-07-20T06:37:35;14.20;99.90
50586;DHT22;36542;51.700;8.846;2023-07-20T06:40:02;14.20;99.90
50586;DHT22;36542;51.700;8.846;2023-07-20T06:42:29;14.10;99.90
50586;DHT22;36542;51.700;8.846;2023-07-20T06:44:55;14.30;99.90
50586;DHT22;36542;51.700;8.846;2023-07-20T06:47:20;14.70;99.90
50586;DHT22;36542;51.700;8.846;2023-07-20T06:49:45;14.90;99.90
50586;DHT22;36542;51.700;8.846;2023-07-20T06:52:11;15.50;99.90
50586;DHT22;36542;51.700;8.846;2023-07-20T06:54:37;15.70;99.90
50586;DHT22;36542;51.700;8.846;2023-07-20T06:57:02;16.00;99.90
50586;DHT22;36542;51.700;8.846;2023-07-20T06:59:28;16.10;99.90
50586;DHT22;36542;51.700;8.846;2023-07-20T07:01:53;16.00;99.90
50586;DHT22;36542;51.700;8.846;2023-07-20T07:04:19;15.90;99.90
50586;DHT22;36542;51.700;8.846;2023-07-20T07:06:44;15.80;99.90
50586;DHT22;36542;51.700;8.846;2023-07-20T07:09:10;15.50;99.90
50586;DHT22;36542;51.700;8.846;2023-07-20T07:11:35;15.20;99.90
50586;DHT22;36542;51.700;8.846;2023-07-20T07:14:01;14.90;99.90
50586;DHT22;36542;51.700;8.846;2023-07-20T07:16:26;14.50;99.90
50586;DHT22;36542;51.700;8.846;2023-07-20T07:18:52;14.40;99.90
50586;DHT22;36542;51.700;8.846;2023-07-20T07:21:17;14.30;99.90
50586;DHT22;36542;51.700;8.846;2023-07-20T07:23:43;14.20;99.90
50586;DHT22;36542;51.700;8.846;2023-07-20T07:26:12;14.10;99.90
50586;DHT22;36542;51.700;8.846;2023-07-20T07:28:37;14.00;99.90
50586;DHT22;36542;51.700;8.846;2023-07-20T07:31:07;14.10;99.90
50586;DHT22;36542;51.700;8.846;2023-07-20T07:33:32;14.20;99.90
50586;DHT22;36542;51.700;8.846;2023-07-20T07:35:58;14.40;99.90
50586;DHT22;36542;51.700;8.846;2023-07-20T07:38:24;14.40;99.90
50586;DHT22;36542;51.700;8.846;2023-07-20T07:40:49;14.60;99.90
50586;DHT22;36542;51.700;8.846;2023-07-20T07:43:15;14.90;99.90
50586;DHT22;36542;51.700;8.846;2023-07-20T07:45:40;15.40;99.90
50586;DHT22;36542;51.700;8.846;2023-07-20T07:48:06;17.40;99.90
50586;DHT22;36542;51.700;8.846;2023-07-20T07:50:33;18.50;99.90
50586;DHT22;36542;51.700;8.846;2023-07-20T07:52:58;18.60;99.90
50586;DHT22;36542;51.700;8.846;2023-07-20T07:55:24;18.10;99.90
50586;DHT22;36542;51.700;8.846;2023-07-20T07:57:52;17.30;99.90
50586;DHT22;36542;51.700;8.846;2023-07-20T08:00:18;17.80;99.90
50586;DHT22;36542;51.700;8.846;2023-07-20T08:02:45;18.30;99.90
50586;DHT22;36542;51.700;8.846;2023-07-20T08:05:11;18.90;99.90
50586;DHT22;36542;51.700;8.846;2023-07-20T08:07:37;19.50;99.90
50586;DHT22;36542;51.700;8.846;2023-07-20T08:10:04;19.20;99.90
50586;DHT22;36542;51.700;8.846;2023-07-20T08:12:30;18.70;99.90
50586;DHT22;36542;51.700;8.846;2023-07-20T08:14:55;18.30;99.90
50586;DHT22;36542;51.700;8.846;2023-07-20T08:17:21;17.40;99.90
50586;DHT22;36542;51.700;8.846;2023-07-20T08:19:46;16.60;99.90
50586;DHT22;36542;51.700;8.846;2023-07-20T08:22:12;17.00;99.90
50586;DHT22;36542;51.700;8.846;2023-07-20T08:24:41;18.10;99.90
50586;DHT22;36542;51.700;8.846;2023-07-20T08:27:07;19.30;99.90
50586;DHT22;36542;51.700;8.846;2023-07-20T08:29:34;20.30;99.90
50586;DHT22;36542;51.700;8.846;2023-07-20T08:32:00;19.50;99.90
50586;DHT22;36542;51.700;8.846;2023-07-20T08:34:26;19.00;99.90
50586;DHT22;36542;51.700;8.846;2023-07-20T08:36:51;19.20;99.90
50586;DHT22;36542;51.700;8.846;2023-07-20T08:39:17;19.40;99.90
50586;DHT22;36542;51.700;8.846;2023-07-20T08:41:43;19.50;99.90
50586;DHT22;36542;51.700;8.846;2023-07-20T08:44:08;20.00;99.90
50586;DHT22;36542;51.700;8.846;2023-07-20T08:46:35;21.00;99.90
50586;DHT22;36542;51.700;8.846;2023-07-20T08:49:03;21.70;99.90
50586;DHT22;36542;51.700;8.846;2023-07-20T08:51:30;20.90;99.90
50586;DHT22;36542;51.700;8.846;2023-07-20T08:53:56;20.60;99.90
50586;DHT22;36542;51.700;8.846;2023-07-20T08:56:24;21.00;99.90
50586;DHT22;36542;51.700;8.846;2023-07-20T08:58:52;22.10;99.90
50586;DHT22;36542;51.700;8.846;2023-07-20T09:01:19;20.90;99.90
50586;DHT22;36542;51.700;8.846;2023-07-20T09:03:45;20.60;99.90
50586;DHT22;36542;51.700;8.846;2023-07-20T09:06:12;19.80;99.90
50586;DHT22;36542;51.700;8.846;2023-07-20T09:08:39;20.00;99.90
50586;DHT22;36542;51.700;8.846;2023-07-20T09:11:04;20.50;99.90
50586;DHT22;36542;51.700;8.846;2023-07-20T09:13:32;20.90;99.90
50586;DHT22;36542;51.700;8.846;2023-07-20T09:15:58;21.30;99.90
50586;DHT22;36542;51.700;8.846;2023-07-20T09:18:28;21.60;99.90
50586;DHT22;36542;51.700;8.846;2023-07-20T09:21:05;21.80;99.90
50586;DHT22;36542;51.700;8.846;2023-07-20T09:23:38;22.00;99.90
50586;DHT22;36542;51.700;8.846;2023-07-20T09:26:10;22.00;99.90
50586;DHT22;36542;51.700;8.846;2023-07-20T09:28:49;21.80;99.90
50586;DHT22;36542;51.700;8.846;2023-07-20T09:31:18;22.80;99.90
50586;DHT22;36542;51.700;8.846;2023-07-20T09:33:44;21.60;99.90
50586;DHT22;36542;51.700;8.846;2023-07-20T09:36:10;21.80;99.90
50586;DHT22;36542;51.700;8.846;2023-07-20T09:38:42;22.10;99.90
50586;DHT22;36542;51.700;8.846;2023-07-20T09:41:13;22.10;99.90
50586;DHT22;36542;51.700;8.846;2023-07-20T09:43:40;21.90;99.90
50586;DHT22;36542;51.700;8.846;2023-07-20T09:46:05;21.70;99.90
50586;DHT22;36542;51.700;8.846;2023-07-20T09:48:31;20.90;99.90
50586;DHT22;36542;51.700;8.846;2023-07-20T09:50:57;20.60;99.90
50586;DHT22;36542;51.700;8.846;2023-07-20T09:53:25;20.70;99.90
50586;DHT22;36542;51.700;8.846;2023-07-20T09:55:52;21.20;99.90
50586;DHT22;36542;51.700;8.846;2023-07-20T09:58:18;21.70;99.90
50586;DHT22;36542;51.700;8.846;2023-07-20T10:00:45;22.20;99.90
50586;DHT22;36542;51.700;8.846;2023-07-20T10:03:19;22.10;99.90
50586;DHT22;36542;51.700;8.846;2023-07-20T10:05:55;21.40;99.90
50586;DHT22;36542;51.700;8.846;2023-07-20T10:08:24;21.20;99.90
50586;DHT22;36542;51.700;8.846;2023-07-20T10:10:50;21.30;99.90
50586;DHT22;36542;51.700;8.846;2023-07-20T10:13:26;22.00;99.90
50586;DHT22;36542;51.700;8.846;2023-07-20T10:16:05;21.70;99.90
50586;DHT22;36542;51.700;8.846;2023-07-20T10:18:50;21.90;99.90
50586;DHT22;36542;51.700;8.846;2023-07-20T10:21:17;22.70;99.90
50586;DHT22;36542;51.700;8.846;2023-07-20T10:23:45;23.20;99.90
50586;DHT22;36542;51.700;8.846;2023-07-20T10:26:11;23.50;99.70
50586;DHT22;36542;51.700;8.846;2023-07-20T10:28:38;23.40;99.90
50586;DHT22;36542;51.700;8.846;2023-07-20T10:31:05;23.00;99.90
50586;DHT22;36542;51.700;8.846;2023-07-20T10:33:32;21.90;99.90
50586;DHT22;36542;51.700;8.846;2023-07-20T10:36:03;21.00;99.90
50586;DHT22;36542;51.700;8.846;2023-07-20T10:41:21;20.10;99.90
50586;DHT22;36542;51.700;8.846;2023-07-20T10:43:47;20.70;99.90
50586;DHT22;36542;51.700;8.846;2023-07-20T10:46:14;21.20;99.90
50586;DHT22;36542;51.700;8.846;2023-07-20T10:48:58;22.20;99.90
50586;DHT22;36542;51.700;8.846;2023-07-20T10:51:24;22.30;99.90
50586;DHT22;36542;51.700;8.846;2023-07-20T10:53:50;21.80;99.90
50586;DHT22;36542;51.700;8.846;2023-07-20T10:56:20;22.50;99.90
50586;DHT22;36542;51.700;8.846;2023-07-20T10:58:45;23.00;98.90
50586;DHT22;36542;51.700;8.846;2023-07-20T11:01:16;22.70;99.60
50586;DHT22;36542;51.700;8.846;2023-07-20T11:03:43;22.80;99.90
50586;DHT22;36542;51.700;8.846;2023-07-20T11:09:12;23.90;99.90
50586;DHT22;36542;51.700;8.846;2023-07-20T11:11:47;23.60;99.00
50586;DHT22;36542;51.700;8.846;2023-07-20T11:14:23;23.00;98.90
50586;DHT22;36542;51.700;8.846;2023-07-20T11:16:51;22.80;99.90
50586;DHT22;36542;51.700;8.846;2023-07-20T11:19:24;22.50;98.20
50586;DHT22;36542;51.700;8.846;2023-07-20T11:21:55;22.10;99.90
50586;DHT22;36542;51.700;8.846;2023-07-20T11:24:21;21.70;98.50
50586;DHT22;36542;51.700;8.846;2023-07-20T11:26:51;21.30;99.90
50586;DHT22;36542;51.700;8.846;2023-07-20T11:29:18;21.20;99.90
50586;DHT22;36542;51.700;8.846;2023-07-20T11:31:45;21.10;99.90
50586;DHT22;36542;51.700;8.846;2023-07-20T11:34:14;20.80;99.90
50586;DHT22;36542;51.700;8.846;2023-07-20T11:36:41;20.70;99.90
50586;DHT22;36542;51.700;8.846;2023-07-20T11:39:09;20.30;99.90
50586;DHT22;36542;51.700;8.846;2023-07-20T11:41:34;20.60;99.90
50586;DHT22;36542;51.700;8.846;2023-07-20T11:44:00;20.60;99.90
50586;DHT22;36542;51.700;8.846;2023-07-20T11:46:28;21.40;99.90
50586;DHT22;36542;51.700;8.846;2023-07-20T11:48:58;22.20;99.20
50586;DHT22;36542;51.700;8.846;2023-07-20T11:51:29;22.70;99.90
50586;DHT22;36542;51.700;8.846;2023-07-20T11:53:55;22.70;98.80
50586;DHT22;36542;51.700;8.846;2023-07-20T11:56:23;22.50;98.50
50586;DHT22;36542;51.700;8.846;2023-07-20T11:58:48;22.20;98.90
50586;DHT22;36542;51.700;8.846;2023-07-20T12:01:14;22.30;98.00
50586;DHT22;36542;51.700;8.846;2023-07-20T12:03:42;22.00;98.60
50586;DHT22;36542;51.700;8.846;2023-07-20T12:06:09;22.40;97.90
50586;DHT22;36542;51.700;8.846;2023-07-20T12:08:34;22.40;99.30
50586;DHT22;36542;51.700;8.846;2023-07-20T12:11:00;21.80;98.30
50586;DHT22;36542;51.700;8.846;2023-07-20T12:13:41;21.70;98.50
50586;DHT22;36542;51.700;8.846;2023-07-20T12:16:11;21.60;99.30
50586;DHT22;36542;51.700;8.846;2023-07-20T12:18:38;21.80;99.50
50586;DHT22;36542;51.700;8.846;2023-07-20T12:21:05;22.10;98.90
50586;DHT22;36542;51.700;8.846;2023-07-20T12:23:40;22.00;98.30
50586;DHT22;36542;51.700;8.846;2023-07-20T12:26:10;22.40;97.80
50586;DHT22;36542;51.700;8.846;2023-07-20T12:28:39;22.40;97.20
50586;DHT22;36542;51.700;8.846;2023-07-20T12:31:06;22.00;98.10
50586;DHT22;36542;51.700;8.846;2023-07-20T12:33:32;22.10;98.50
50586;DHT22;36542;51.700;8.846;2023-07-20T12:35:57;22.60;97.30
50586;DHT22;36542;51.700;8.846;2023-07-20T12:38:24;22.90;96.10
50586;DHT22;36542;51.700;8.846;2023-07-20T12:40:50;23.40;96.80
50586;DHT22;36542;51.700;8.846;2023-07-20T12:43:16;23.50;96.50
50586;DHT22;36542;51.700;8.846;2023-07-20T12:45:43;23.40;96.00
50586;DHT22;36542;51.700;8.846;2023-07-20T12:48:09;23.20;97.40
50586;DHT22;36542;51.700;8.846;2023-07-20T12:50:34;23.80;97.50
50586;DHT22;36542;51.700;8.846;2023-07-20T12:53:00;23.40;96.30
50586;DHT22;36542;51.700;8.846;2023-07-20T12:55:29;23.50;95.90
50586;DHT22;36542;51.700;8.846;2023-07-20T12:57:54;23.20;96.30
50586;DHT22;36542;51.700;8.846;2023-07-20T13:00:20;23.20;96.10
50586;DHT22;36542;51.700;8.846;2023-07-20T13:02:48;23.00;95.80
50586;DHT22;36542;51.700;8.846;2023-07-20T13:05:14;23.50;96.30
50586;DHT22;36542;51.700;8.846;2023-07-20T13:07:40;23.80;95.30
50586;DHT22;36542;51.700;8.846;2023-07-20T13:10:07;23.60;95.20
50586;DHT22;36542;51.700;8.846;2023-07-20T13:12:34;23.20;95.70
50586;DHT22;36542;51.700;8.846;2023-07-20T13:15:02;22.80;96.40
50586;DHT22;36542;51.700;8.846;2023-07-20T13:17:31;22.50;96.00
50586;DHT22;36542;51.700;8.846;2023-07-20T13:19:56;22.30;97.70
50586;DHT22;36542;51.700;8.846;2023-07-20T13:22:22;23.10;97.10
50586;DHT22;36542;51.700;8.846;2023-07-20T13:24:48;23.80;95.50
50586;DHT22;36542;51.700;8.846;2023-07-20T13:27:16;24.10;94.90
50586;DHT22;36542;51.700;8.846;2023-07-20T13:29:41;23.20;96.30
50586;DHT22;36542;51.700;8.846;2023-07-20T13:32:07;21.70;98.30
50586;DHT22;36542;51.700;8.846;2023-07-20T13:34:33;20.90;99.80
50586;DHT22;36542;51.700;8.846;2023-07-20T13:37:00;20.80;99.90
50586;DHT22;36542;51.700;8.846;2023-07-20T13:39:25;21.50;99.90
50586;DHT22;36542;51.700;8.846;2023-07-20T13:41:53;22.00;99.00
50586;DHT22;36542;51.700;8.846;2023-07-20T13:44:19;21.70;98.90
50586;DHT22;36542;51.700;8.846;2023-07-20T13:46:49;21.70;99.20
50586;DHT22;36542;51.700;8.846;2023-07-20T13:49:15;22.20;97.90
50586;DHT22;36542;51.700;8.846;2023-07-20T13:51:43;22.00;97.10
50586;DHT22;36542;51.700;8.846;2023-07-20T13:54:09;21.90;98.50
50586;DHT22;36542;51.700;8.846;2023-07-20T13:56:35;22.40;98.20
50586;DHT22;36542;51.700;8.846;2023-07-20T13:59:01;22.40;97.20
50586;DHT22;36542;51.700;8.846;2023-07-20T14:01:26;23.10;96.90
50586;DHT22;36542;51.700;8.846;2023-07-20T14:03:53;23.00;95.30
50586;DHT22;36542;51.700;8.846;2023-07-20T14:06:19;22.60;96.00
50586;DHT22;36542;51.700;8.846;2023-07-20T14:08:44;22.30;96.00
50586;DHT22;36542;51.700;8.846;2023-07-20T14:11:14;22.70;94.90
50586;DHT22;36542;51.700;8.846;2023-07-20T14:13:39;22.60;94.80
50586;DHT22;36542;51.700;8.846;2023-07-20T14:16:05;22.90;94.30
50586;DHT22;36542;51.700;8.846;2023-07-20T14:18:31;23.20;94.40
50586;DHT22;36542;51.700;8.846;2023-07-20T14:20:56;22.80;94.20
50586;DHT22;36542;51.700;8.846;2023-07-20T14:23:22;22.60;94.80
50586;DHT22;36542;51.700;8.846;2023-07-20T14:25:48;22.10;95.90
50586;DHT22;36542;51.700;8.846;2023-07-20T14:28:14;22.30;95.60
50586;DHT22;36542;51.700;8.846;2023-07-20T14:30:41;22.20;96.10
50586;DHT22;36542;51.700;8.846;2023-07-20T14:33:07;22.00;97.30
50586;DHT22;36542;51.700;8.846;2023-07-20T14:35:33;22.20;96.60
50586;DHT22;36542;51.700;8.846;2023-07-20T14:37:59;22.40;95.00
50586;DHT22;36542;51.700;8.846;2023-07-20T14:40:25;22.30;96.90
50586;DHT22;36542;51.700;8.846;2023-07-20T14:42:50;22.10;97.00
50586;DHT22;36542;51.700;8.846;2023-07-20T14:45:17;22.10;96.30
50586;DHT22;36542;51.700;8.846;2023-07-20T14:47:42;22.20;96.00
50586;DHT22;36542;51.700;8.846;2023-07-20T14:50:08;21.90;96.00
50586;DHT22;36542;51.700;8.846;2023-07-20T14:52:34;22.20;94.90
50586;DHT22;36542;51.700;8.846;2023-07-20T14:54:59;22.10;95.00
50586;DHT22;36542;51.700;8.846;2023-07-20T14:57:25;21.30;96.10
50586;DHT22;36542;51.700;8.846;2023-07-20T14:59:50;21.20;97.30
50586;DHT22;36542;51.700;8.846;2023-07-20T15:02:16;21.20;96.30
50586;DHT22;36542;51.700;8.846;2023-07-20T15:04:46;21.70;94.90
50586;DHT22;36542;51.700;8.846;2023-07-20T15:07:12;22.00;94.00
50586;DHT22;36542;51.700;8.846;2023-07-20T15:09:39;22.30;94.40
50586;DHT22;36542;51.700;8.846;2023-07-20T15:12:06;22.70;93.50
50586;DHT22;36542;51.700;8.846;2023-07-20T15:14:32;22.90;93.40
50586;DHT22;36542;51.700;8.846;2023-07-20T15:16:57;22.70;94.50
50586;DHT22;36542;51.700;8.846;2023-07-20T15:19:23;22.70;93.40
50586;DHT22;36542;51.700;8.846;2023-07-20T15:21:48;23.10;93.80
50586;DHT22;36542;51.700;8.846;2023-07-20T15:24:14;22.70;92.20
50586;DHT22;36542;51.700;8.846;2023-07-20T15:26:40;22.80;93.10
50586;DHT22;36542;51.700;8.846;2023-07-20T15:29:06;23.10;92.20
50586;DHT22;36542;51.700;8.846;2023-07-20T15:31:32;23.10;92.50
50586;DHT22;36542;51.700;8.846;2023-07-20T15:33:57;23.10;92.10
50586;DHT22;36542;51.700;8.846;2023-07-20T15:36:23;22.20;93.50
50586;DHT22;36542;51.700;8.846;2023-07-20T15:38:49;21.90;94.80
50586;DHT22;36542;51.700;8.846;2023-07-20T15:41:14;21.60;95.30
50586;DHT22;36542;51.700;8.846;2023-07-20T15:43:41;21.60;94.60